Time;durP1;ratioP1;P1;durP2;ratioP2;P2;SDS_P1;SDS_P2;PMS_P1;PMS_P2;Temp;Humidity;BMP_temperature;BMP_pressure;BME280_temperature;BME280_humidity;BME280_pressure;Samples;Min_cycle;Max_cycle;Signal;HPM_P1;HPM_P2
2021/08/03 00:00:01;;;;;;;10.60;6.18;;;;;;;21.13;85.97;94978.97;5047506;28;20059;-66
2021/08/03 00:02:42;;;;;;;15.27;6.10;;;;;;;21.07;86.04;94983.56;5046574;28;20554;-66
2021/08/03 00:05:13;;;;;;;11.43;5.78;;;;;;;21.08;86.22;94969.22;5044472;28;20041;-66
2021/08/03 00:07:39;;;;;;;10.43;5.43;;;;;;;21.13;85.91;94976.31;5046194;28;20506;-66
2021/08/03 00:10:07;;;;;;;18.38;6.53;;;;;;;21.11;86.47;94971.31;5046620;28;20060;-67
2021/08/03 00:12:34;;;;;;;14.50;6.03;;;;;;;21.06;86.39;94974.03;5045435;28;21589;-67
2021/08/03 00:15:01;;;;;;;15.63;6.13;;;;;;;21.04;86.59;94978.84;5045672;28;20066;-67
2021/08/03 00:17:29;;;;;;;10.38;6.03;;;;;;;21.04;86.61;94978.84;5048341;28;20202;-66
2021/08/03 00:19:58;;;;;;;18.25;6.43;;;;;;;20.88;86.72;94969.63;5046473;28;20041;-67
2021/08/03 00:22:24;;;;;;;19.08;6.82;;;;;;;20.93;86.55;94977.47;5046237;28;20040;-65
2021/08/03 00:24:51;;;;;;;16.70;5.95;;;;;;;20.95;86.21;94981.38;5046300;28;20044;-65
2021/08/03 00:27:20;;;;;;;14.65;6.20;;;;;;;20.93;85.99;94983.53;5046725;28;20058;-66
2021/08/03 00:29:47;;;;;;;19.13;6.60;;;;;;;20.85;86.65;94980.78;5046861;28;20044;-66
2021/08/03 00:32:14;;;;;;;7.30;5.25;;;;;;;20.83;86.34;94993.53;5045491;28;20048;-66
2021/08/03 00:34:41;;;;;;;17.85;6.70;;;;;;;20.79;86.29;94986.16;5048225;28;20059;-66
2021/08/03 00:37:09;;;;;;;15.38;5.95;;;;;;;20.74;87.14;94994.22;5045406;28;20045;-66
2021/08/03 00:39:38;;;;;;;9.15;5.68;;;;;;;20.70;87.13;94995.84;5046658;28;20134;-66
2021/08/03 00:42:09;;;;;;;9.85;5.97;;;;;;;20.62;87.86;94984.09;5045553;28;20053;-66
2021/08/03 00:44:49;;;;;;;16.20;6.80;;;;;;;20.52;88.33;94984.22;5049192;28;20537;-66
2021/08/03 00:47:24;;;;;;;;;;;;;;;20.46;89.02;94980.09;5044745;28;20045;-66
2021/08/03 00:53:03;;;;;;;12.02;5.68;;;;;;;20.18;89.75;94973.91;5045682;28;20045;-65
2021/08/03 00:55:30;;;;;;;13.27;6.88;;;;;;;20.15;89.83;94977.13;5043882;28;20141;-66
2021/08/03 00:57:58;;;;;;;11.25;6.18;;;;;;;20.22;90.05;94974.91;5044139;28;20152;-66
2021/08/03 01:00:27;;;;;;;19.08;7.03;;;;;;;20.18;90.39;94984.50;5040947;28;20049;-66
2021/08/03 01:02:55;;;;;;;12.25;6.50;;;;;;;20.00;90.90;94984.22;5042492;28;20084;-66
2021/08/03 01:05:24;;;;;;;12.88;5.63;;;;;;;19.97;91.24;94979.50;5043330;28;20044;-66
2021/08/03 01:08:02;;;;;;;11.75;6.43;;;;;;;19.90;92.07;94983.56;5043046;28;20885;-66
2021/08/03 01:10:43;;;;;;;13.75;7.40;;;;;;;19.86;91.74;94983.34;5026123;28;20041;-66
2021/08/03 01:13:24;;;;;;;12.98;6.18;;;;;;;19.79;92.15;94982.91;5045578;28;20072;-66
2021/08/03 01:16:06;;;;;;;12.27;6.18;;;;;;;19.81;91.83;94986.88;5044028;28;20049;-66
2021/08/03 01:18:45;;;;;;;11.65;6.50;;;;;;;19.74;92.18;94983.78;5026131;28;20049;-68
2021/08/03 01:21:15;;;;;;;7.80;6.47;;;;;;;19.68;92.64;94988.31;5044335;28;20045;-69
2021/08/03 01:24:23;;;;;;;10.30;5.40;;;;;;;19.71;92.30;94986.19;5046044;28;20123;-68
2021/08/03 01:27:19;;;;;;;12.18;6.43;;;;;;;19.71;92.62;95007.31;5029412;28;20064;-69
2021/08/03 01:29:48;;;;;;;;;;;;;;;19.60;92.44;95007.44;5044999;28;20053;-69
2021/08/03 01:32:25;;;;;;;10.82;5.68;;;;;;;19.47;92.63;94997.56;5046472;28;19963;-69
2021/08/03 01:34:54;;;;;;;8.10;5.35;;;;;;;19.53;92.97;95007.00;5045799;28;20407;-69
2021/08/03 01:37:22;;;;;;;8.35;5.28;;;;;;;19.53;92.71;95011.50;5046233;28;20052;-69
2021/08/03 01:39:58;;;;;;;17.00;6.18;;;;;;;19.50;93.10;95007.59;5046633;28;20465;-69
2021/08/03 01:42:28;;;;;;;16.35;7.03;;;;;;;19.46;93.76;95009.19;5043807;28;20049;-69
2021/08/03 01:44:58;;;;;;;14.40;5.82;;;;;;;19.51;93.36;95014.44;5061962;28;20045;-69
2021/08/03 01:47:27;;;;;;;14.05;6.50;;;;;;;19.47;93.61;95019.47;5046768;28;20084;-69
2021/08/03 01:49:58;;;;;;;17.55;6.20;;;;;;;19.48;93.54;95014.97;5046880;28;20056;-69
2021/08/03 01:52:27;;;;;;;7.97;5.85;;;;;;;19.42;93.43;95001.06;5063858;28;20456;-69
2021/08/03 01:54:59;;;;;;;10.07;5.88;;;;;;;19.34;93.78;95014.09;5061920;28;20056;-69
2021/08/03 01:57:35;;;;;;;14.30;6.38;;;;;;;19.39;93.99;95003.47;5046885;28;20088;-70
2021/08/03 02:00:08;;;;;;;11.40;5.60;;;;;;;19.37;93.72;95002.97;5045921;28;20060;-69
2021/08/03 02:02:42;;;;;;;13.93;6.18;;;;;;;19.44;93.60;94992.84;5045704;28;20514;-69
2021/08/03 02:05:11;;;;;;;11.07;5.55;;;;;;;19.42;93.36;94989.72;5027726;28;20483;-69
2021/08/03 02:07:48;;;;;;;13.00;5.93;;;;;;;19.35;93.44;94999.84;5063279;28;20090;-69
2021/08/03 02:10:21;;;;;;;17.23;7.53;;;;;;;19.25;93.83;94984.91;5045986;28;20127;-69
2021/08/03 02:12:49;;;;;;;14.52;6.13;;;;;;;19.20;93.77;94980.44;5045691;28;20041;-69
2021/08/03 02:15:17;;;;;;;16.40;6.22;;;;;;;19.31;93.57;94980.34;5045065;28;20052;-69
2021/08/03 02:17:46;;;;;;;10.18;5.57;;;;;;;19.24;93.52;94968.25;5046353;28;20041;-69
2021/08/03 02:20:22;;;;;;;10.90;6.65;;;;;;;19.24;93.73;94983.31;5062918;28;20769;-69
2021/08/03 02:22:55;;;;;;;13.15;6.55;;;;;;;19.26;93.73;94995.16;5046241;28;20140;-68
2021/08/03 02:25:26;;;;;;;13.63;5.80;;;;;;;19.24;93.65;94985.97;5043257;28;20055;-68
2021/08/03 02:27:55;;;;;;;12.85;5.50;;;;;;;19.32;93.68;94995.91;5062067;28;20047;-69
2021/08/03 02:30:25;;;;;;;12.13;5.85;;;;;;;19.38;92.95;95004.56;5051875;28;20510;-68
2021/08/03 02:33:06;;;;;;;14.45;6.05;;;;;;;19.36;92.27;95009.34;5050620;28;20446;-68
2021/08/03 02:35:42;;;;;;;9.65;5.43;;;;;;;19.41;91.80;95019.81;5050838;28;20033;-68
2021/08/03 02:38:17;;;;;;;12.18;6.15;;;;;;;19.39;91.28;95028.06;5049202;28;20140;-68
2021/08/03 02:40:45;;;;;;;16.00;7.03;;;;;;;19.45;90.86;95031.41;5049964;28;20045;-68
2021/08/03 02:43:22;;;;;;;10.50;6.25;;;;;;;19.48;90.66;95036.13;5048671;28;20068;-68
2021/08/03 02:45:54;;;;;;;12.40;6.07;;;;;;;19.51;90.44;95035.56;5049494;28;20053;-69
2021/08/03 02:48:25;;;;;;;15.63;6.70;;;;;;;19.52;89.92;95042.44;5048073;28;20735;-69
2021/08/03 02:50:52;;;;;;;17.90;5.40;;;;;;;19.48;89.79;95046.69;5050474;28;20049;-69
2021/08/03 02:53:38;;;;;;;12.43;6.90;;;;;;;19.45;89.92;95047.25;5050569;28;20056;-69
2021/08/03 02:56:18;;;;;;;14.95;6.55;;;;;;;19.44;89.25;95046.44;5049320;28;20053;-69
2021/08/03 02:58:51;;;;;;;13.43;6.43;;;;;;;19.35;89.65;95034.16;5047135;28;20036;-69
2021/08/03 03:01:21;;;;;;;13.93;6.22;;;;;;;19.39;89.41;95048.38;5049198;28;20051;-68
2021/08/03 03:03:56;;;;;;;13.85;6.72;;;;;;;19.35;90.53;95053.44;5047398;28;20053;-68
2021/08/03 03:06:31;;;;;;;14.63;6.88;;;;;;;19.25;90.47;95059.59;5080474;28;20075;-69
2021/08/03 03:09:00;;;;;;;13.68;7.75;;;;;;;19.16;90.42;95056.00;5047845;28;20065;-68
2021/08/03 03:11:33;;;;;;;14.75;7.57;;;;;;;19.09;90.67;95050.28;5051147;28;20073;-68
2021/08/03 03:14:06;;;;;;;14.88;7.20;;;;;;;19.08;90.57;95064.53;5049045;28;20053;-69
2021/08/03 03:16:41;;;;;;;18.05;7.97;;;;;;;19.06;90.64;95061.38;5048626;28;20045;-69
2021/08/03 03:19:10;;;;;;;12.07;7.47;;;;;;;19.03;90.51;95056.66;5064994;28;20044;-69
2021/08/03 03:21:41;;;;;;;22.25;7.82;;;;;;;19.09;90.20;95061.59;5049137;28;20506;-68
2021/08/03 03:24:08;;;;;;;17.42;7.93;;;;;;;19.11;89.43;95074.53;5047490;28;20430;-68
2021/08/03 03:26:37;;;;;;;14.23;8.57;;;;;;;19.12;89.18;95067.41;5048730;28;20131;-69
2021/08/03 03:29:11;;;;;;;17.33;8.15;;;;;;;19.08;90.42;95069.81;5048381;28;20911;-69
2021/08/03 03:31:40;;;;;;;24.40;9.77;;;;;;;19.11;90.34;95074.53;5048051;28;20059;-69
2021/08/03 03:34:09;;;;;;;21.63;9.57;;;;;;;19.15;90.08;95086.09;5064534;28;20045;-69
2021/08/03 03:36:38;;;;;;;17.52;8.32;;;;;;;19.14;89.98;95084.53;5049690;28;20472;-69
2021/08/03 03:39:09;;;;;;;23.48;8.98;;;;;;;19.03;90.14;95073.28;5047982;28;20483;-69
2021/08/03 03:41:45;;;;;;;19.63;9.73;;;;;;;19.14;89.50;95079.28;5049607;28;20071;-69
2021/08/03 03:44:12;;;;;;;14.07;9.25;;;;;;;19.13;89.83;95082.97;5066625;28;20053;-70
2021/08/03 03:47:04;;;;;;;17.40;8.90;;;;;;;19.10;90.02;95084.31;5050854;28;20450;-69
2021/08/03 03:49:44;;;;;;;17.15;8.95;;;;;;;19.09;90.24;95087.22;5054072;28;20045;-70
2021/08/03 03:52:12;;;;;;;20.60;8.73;;;;;;;19.04;89.88;95092.53;5053312;28;20045;-69
2021/08/03 03:54:44;;;;;;;24.85;8.90;;;;;;;19.01;90.67;95101.78;5052925;28;20064;-70
2021/08/03 03:57:15;;;;;;;;;;;;;;;18.95;91.24;95099.50;5052344;28;20514;-69
2021/08/03 03:59:48;;;;;;;18.70;10.05;;;;;;;18.90;91.61;95095.81;5068593;28;19920;-69
2021/08/03 04:02:18;;;;;;;19.50;10.20;;;;;;;18.72;93.99;95105.16;5052898;28;20047;-69
2021/08/03 04:04:46;;;;;;;19.13;10.20;;;;;;;18.69;94.39;95104.91;5051201;28;20067;-69
2021/08/03 04:07:14;;;;;;;16.25;9.57;;;;;;;18.77;93.88;95100.94;5066890;28;20099;-70
2021/08/03 04:09:42;;;;;;;14.43;10.00;;;;;;;18.80;93.55;95095.88;5048020;28;20033;-69
2021/08/03 04:12:14;;;;;;;16.98;9.57;;;;;;;18.85;93.37;95098.53;5063543;28;20423;-70
2021/08/03 04:14:44;;;;;;;22.88;9.48;;;;;;;18.89;93.44;95099.53;5047042;28;20467;-69
2021/08/03 04:17:13;;;;;;;16.63;9.05;;;;;;;19.00;93.56;95110.00;5047246;28;20045;-69
2021/08/03 04:19:41;;;;;;;19.73;9.63;;;;;;;19.02;93.86;95102.59;5063848;28;20437;-70
2021/08/03 04:22:08;;;;;;;19.20;8.82;;;;;;;19.05;94.15;95117.88;5048320;28;20033;-69
2021/08/03 04:24:35;;;;;;;19.05;9.95;;;;;;;19.07;93.49;95119.19;5051320;28;20151;-69
2021/08/03 04:27:02;;;;;;;19.05;8.30;;;;;;;19.11;93.12;95122.06;5048028;28;20037;-69
2021/08/03 04:29:29;;;;;;;14.63;9.45;;;;;;;19.08;93.30;95123.38;5049963;28;20048;-70
2021/08/03 04:31:56;;;;;;;24.00;9.48;;;;;;;19.13;92.84;95125.19;5049721;28;20554;-70
2021/08/03 04:34:23;;;;;;;16.20;9.00;;;;;;;19.10;93.03;95125.75;5051204;28;20041;-70
2021/08/03 04:36:50;;;;;;;16.88;8.73;;;;;;;19.14;92.46;95116.22;5048024;28;20136;-70
2021/08/03 04:39:17;;;;;;;23.13;9.23;;;;;;;19.22;91.75;95112.97;5049558;28;21950;-70
2021/08/03 04:41:44;;;;;;;26.77;10.70;;;;;;;19.32;92.47;95127.13;5049587;28;20064;-70
2021/08/03 04:44:11;;;;;;;19.13;10.13;;;;;;;19.22;92.66;95136.72;5049280;28;20072;-70
2021/08/03 04:46:37;;;;;;;28.73;10.10;;;;;;;19.29;93.04;95139.84;5047935;28;20033;-70
2021/08/03 04:49:04;;;;;;;18.90;10.85;;;;;;;19.39;92.54;95135.53;5046761;28;20041;-72
2021/08/03 04:51:32;;;;;;;16.25;8.15;;;;;;;19.31;92.28;95130.88;5046718;28;20494;-70
2021/08/03 04:53:59;;;;;;;24.13;9.50;;;;;;;19.35;93.65;95126.59;5046799;28;20041;-70
2021/08/03 04:56:26;;;;;;;30.98;10.73;;;;;;;19.44;93.50;95130.19;5046843;28;20039;-71
2021/08/03 04:58:53;;;;;;;19.15;9.60;;;;;;;19.64;92.74;95135.28;5048650;28;20032;-70
2021/08/03 05:01:20;;;;;;;19.60;9.07;;;;;;;19.62;92.19;95128.69;5046789;28;20041;-70
2021/08/03 05:03:47;;;;;;;17.65;9.15;;;;;;;19.75;90.82;95129.91;5046167;28;20423;-70
2021/08/03 05:06:14;;;;;;;19.50;8.15;;;;;;;19.86;90.60;95136.63;5045601;28;20064;-70
2021/08/03 05:08:40;;;;;;;15.93;7.82;;;;;;;19.91;90.25;95133.94;5048222;28;20040;-70
2021/08/03 05:11:07;;;;;;;18.42;7.40;;;;;;;19.98;90.22;95123.81;5047451;28;20087;-71
2021/08/03 05:13:34;;;;;;;15.77;7.50;;;;;;;20.03;88.94;95136.97;5045431;28;20032;-70
2021/08/03 05:16:01;;;;;;;18.85;6.72;;;;;;;20.10;88.42;95128.69;5049588;28;20032;-69
2021/08/03 05:18:28;;;;;;;16.58;7.10;;;;;;;20.17;88.89;95136.31;5046268;28;20120;-70
2021/08/03 05:20:55;;;;;;;12.88;6.57;;;;;;;20.23;88.55;95151.03;5046219;28;20103;-70
2021/08/03 05:23:22;;;;;;;10.90;5.65;;;;;;;20.30;87.18;95146.16;5046227;28;20037;-70
2021/08/03 05:25:49;;;;;;;14.93;6.82;;;;;;;20.29;87.15;95144.59;5048788;28;20467;-70
2021/08/03 05:28:16;;;;;;;15.45;6.00;;;;;;;20.30;87.28;95146.16;5044275;28;20105;-69
2021/08/03 05:30:44;;;;;;;17.73;6.82;;;;;;;20.34;87.41;95147.16;5045547;28;20052;-70
2021/08/03 05:33:11;;;;;;;15.85;6.80;;;;;;;20.41;86.98;95141.53;5048767;28;20041;-69
2021/08/03 05:35:38;;;;;;;20.35;6.30;;;;;;;20.41;86.19;95152.88;5047676;28;20132;-70
2021/08/03 05:38:06;;;;;;;14.93;6.68;;;;;;;20.40;85.85;95147.88;5044414;28;20038;-70
2021/08/03 05:40:32;;;;;;;10.65;6.10;;;;;;;20.55;86.14;95152.19;5046477;28;20051;-69
2021/08/03 05:42:59;;;;;;;13.68;5.63;;;;;;;20.54;84.87;95147.97;5046429;28;20032;-70
2021/08/03 05:45:27;;;;;;;14.60;6.43;;;;;;;20.62;85.37;95152.66;5046244;28;20422;-70
2021/08/03 05:47:54;;;;;;;12.75;6.63;;;;;;;20.72;84.31;95152.50;5046424;28;20033;-69
2021/08/03 05:50:21;;;;;;;19.00;6.55;;;;;;;20.73;84.57;95148.78;5049226;28;20064;-69
2021/08/03 05:52:47;;;;;;;13.73;7.43;;;;;;;20.78;85.13;95148.72;5046617;28;20040;-70
2021/08/03 05:55:14;;;;;;;10.70;7.05;;;;;;;20.88;85.14;95149.63;5047265;28;20068;-69
2021/08/03 05:57:41;;;;;;;10.65;6.93;;;;;;;21.02;84.11;95155.75;5046820;28;20149;-69
2021/08/03 06:00:08;;;;;;;15.75;6.70;;;;;;;21.07;82.99;95158.34;5049514;28;20048;-70
2021/08/03 06:02:44;;;;;;;9.98;6.30;;;;;;;21.15;82.77;95155.00;5046858;28;20072;-70
2021/08/03 06:05:12;;;;;;;17.55;6.78;;;;;;;21.27;82.36;95161.75;5044947;28;20051;-70
2021/08/03 06:07:42;;;;;;;21.13;5.93;;;;;;;21.31;82.48;95157.41;5046077;28;20044;-69
2021/08/03 06:10:13;;;;;;;13.75;6.22;;;;;;;21.42;82.53;95158.81;5046211;28;20041;-70
2021/08/03 06:12:45;;;;;;;12.57;5.40;;;;;;;21.46;80.48;95159.81;5045958;28;20049;-70
2021/08/03 06:15:12;;;;;;;16.40;6.07;;;;;;;21.42;81.21;95153.50;5046048;28;20063;-69
2021/08/03 06:17:43;;;;;;;13.90;5.45;;;;;;;21.49;80.67;95163.78;5046699;28;20044;-70
2021/08/03 06:20:11;;;;;;;14.80;6.85;;;;;;;21.60;81.43;95159.06;5045516;28;20052;-69
2021/08/03 06:22:39;;;;;;;11.90;5.75;;;;;;;21.68;81.03;95151.25;5048036;28;20087;-70
2021/08/03 06:25:11;;;;;;;13.45;5.85;;;;;;;21.90;80.10;95163.03;5047834;28;20051;-69
2021/08/03 06:27:40;;;;;;;11.70;5.80;;;;;;;21.89;78.95;95146.31;5046709;28;20061;-69
2021/08/03 06:30:08;;;;;;;12.82;5.72;;;;;;;21.97;78.74;95158.13;5046834;28;20040;-70
2021/08/03 06:32:35;;;;;;;10.48;5.47;;;;;;;21.98;79.79;95164.22;5045888;28;20041;-70
2021/08/03 06:35:03;;;;;;;9.98;5.50;;;;;;;22.06;79.51;95168.84;5059158;28;20059;-70
2021/08/03 06:37:29;;;;;;;17.95;6.03;;;;;;;22.16;78.84;95165.97;5045378;28;20037;-70
2021/08/03 06:39:56;;;;;;;8.95;5.85;;;;;;;22.21;77.62;95163.22;5044736;28;20075;-70
2021/08/03 06:42:52;;;;;;;18.83;6.30;;;;;;;22.37;78.42;95162.94;5046319;28;20099;-72
2021/08/03 06:45:22;;;;;;;11.13;5.78;;;;;;;22.40;79.09;95143.75;5045546;28;20128;-70
2021/08/03 06:48:05;;;;;;;10.15;5.93;;;;;;;22.65;78.87;95172.41;5045373;28;20115;-70
2021/08/03 06:50:45;;;;;;;20.85;6.68;;;;;;;22.78;76.16;95164.69;5044742;28;20457;-70
2021/08/03 06:53:14;;;;;;;15.95;6.00;;;;;;;22.91;76.53;95158.56;5045313;28;20041;-70
2021/08/03 06:55:45;;;;;;;15.65;6.25;;;;;;;23.04;75.92;95168.34;5044974;28;20057;-70
2021/08/03 06:58:26;;;;;;;17.67;5.90;;;;;;;23.16;74.86;95169.72;5045191;28;20033;-70
2021/08/03 07:00:54;;;;;;;17.58;6.20;;;;;;;23.20;74.48;95160.03;5045160;28;20116;-70
2021/08/03 07:03:24;;;;;;;28.58;6.22;;;;;;;23.37;74.47;95175.28;5044887;28;20064;-70
2021/08/03 07:05:56;;;;;;;12.95;6.05;;;;;;;23.39;73.71;95157.97;5043621;28;20041;-70
2021/08/03 07:08:24;;;;;;;12.63;6.85;;;;;;;23.51;75.37;95159.28;5048391;28;20072;-70
2021/08/03 07:10:52;;;;;;;14.30;6.88;;;;;;;23.65;72.90;95168.72;5048446;28;20426;-70
2021/08/03 07:13:21;;;;;;;21.52;6.28;;;;;;;23.75;72.58;95161.56;5049583;28;20045;-70
2021/08/03 07:15:51;;;;;;;16.25;6.93;;;;;;;23.92;73.14;95171.53;5050524;28;20045;-70
2021/08/03 07:18:21;;;;;;;13.93;6.38;;;;;;;24.08;72.00;95167.38;5050496;28;20528;-70
2021/08/03 07:20:49;;;;;;;16.98;5.75;;;;;;;24.21;71.35;95177.09;5050197;28;20045;-70
2021/08/03 07:23:20;;;;;;;17.10;6.88;;;;;;;24.39;71.04;95172.59;5051619;28;20037;-70
2021/08/03 07:25:48;;;;;;;20.13;7.60;;;;;;;24.60;69.98;95180.81;5049479;28;20049;-71
2021/08/03 07:28:15;;;;;;;14.88;5.88;;;;;;;24.68;69.66;95179.25;5049041;28;20116;-70
2021/08/03 07:30:44;;;;;;;16.23;6.68;;;;;;;24.78;68.98;95178.19;5049418;28;20044;-71
2021/08/03 07:33:13;;;;;;;16.63;6.07;;;;;;;24.95;67.69;95172.06;5054430;28;20033;-70
2021/08/03 07:35:41;;;;;;;12.40;5.65;;;;;;;25.10;66.93;95181.44;5050471;28;20087;-71
2021/08/03 07:38:09;;;;;;;15.20;6.22;;;;;;;25.26;66.96;95177.22;5070060;28;20033;-70
2021/08/03 07:40:36;;;;;;;17.20;5.80;;;;;;;25.45;67.23;95179.56;5056314;28;20414;-70
2021/08/03 07:43:04;;;;;;;21.83;6.53;;;;;;;25.51;66.27;95161.50;5055988;28;20037;-70
2021/08/03 07:45:36;;;;;;;13.13;5.82;;;;;;;25.86;65.74;95182.75;5058334;28;20048;-70
2021/08/03 07:48:05;;;;;;;14.35;6.82;;;;;;;26.02;64.94;95173.13;5058962;28;20033;-70
2021/08/03 07:50:32;;;;;;;16.23;5.40;;;;;;;26.13;62.45;95174.31;5057712;28;20049;-70
2021/08/03 07:52:59;;;;;;;11.73;6.45;;;;;;;26.21;62.90;95171.94;5058959;28;20044;-70
2021/08/03 07:55:26;;;;;;;17.25;5.72;;;;;;;26.39;61.23;95178.72;5053812;28;20045;-70
2021/08/03 07:57:52;;;;;;;15.70;6.07;;;;;;;26.48;60.60;95166.09;5051782;28;20047;-70
2021/08/03 08:00:19;;;;;;;19.38;5.57;;;;;;;26.66;60.50;95166.03;5054599;28;20037;-70
2021/08/03 08:02:46;;;;;;;15.30;5.45;;;;;;;26.72;58.94;95164.72;5057469;28;20064;-70
2021/08/03 08:05:14;;;;;;;17.63;7.32;;;;;;;26.85;58.36;95158.34;5054303;28;20040;-70
2021/08/03 08:07:41;;;;;;;14.98;5.55;;;;;;;26.95;58.47;95151.03;5055475;28;20040;-70
2021/08/03 08:10:09;;;;;;;23.90;6.65;;;;;;;27.00;58.35;95148.16;5054779;28;20041;-70
2021/08/03 08:12:35;;;;;;;13.75;4.88;;;;;;;27.22;57.87;95155.81;5055360;28;20048;-70
2021/08/03 08:15:03;;;;;;;16.75;5.82;;;;;;;27.37;56.98;95150.97;5054611;28;20041;-70
2021/08/03 08:17:30;;;;;;;13.45;4.80;;;;;;;27.55;58.65;95156.91;5053859;28;20033;-70
2021/08/03 08:19:57;;;;;;;18.17;5.65;;;;;;;27.64;57.13;95142.34;5054967;28;20062;-70
2021/08/03 08:22:23;;;;;;;14.05;6.13;;;;;;;27.83;57.95;95151.72;5056906;28;20066;-70
2021/08/03 08:24:50;;;;;;;15.15;5.65;;;;;;;28.05;55.01;95157.78;5055166;28;20052;-70
2021/08/03 08:27:17;;;;;;;13.43;5.03;;;;;;;28.08;53.20;95149.09;5053065;28;20049;-70
2021/08/03 08:29:44;;;;;;;18.58;8.88;;;;;;;28.26;53.62;95153.09;5051671;28;20041;-70
2021/08/03 08:32:10;;;;;;;16.88;5.97;;;;;;;28.38;51.47;95144.28;5054435;28;20395;-70
2021/08/03 08:34:38;;;;;;;13.20;4.85;;;;;;;28.55;48.64;95153.97;5052216;28;20040;-70
2021/08/03 08:37:05;;;;;;;15.38;5.88;;;;;;;28.72;51.15;95153.72;5056737;28;20037;-70
2021/08/03 08:39:32;;;;;;;18.33;5.85;;;;;;;28.87;49.98;95149.53;5055398;28;20041;-70
2021/08/03 08:42:00;;;;;;;21.60;5.40;;;;;;;28.73;50.75;95139.19;5055838;28;20051;-70
2021/08/03 08:44:27;;;;;;;11.00;5.22;;;;;;;28.96;50.74;95150.19;5056108;28;20047;-70
2021/08/03 08:46:56;;;;;;;17.95;4.68;;;;;;;29.12;51.12;95150.22;5052465;28;20501;-71
2021/08/03 08:49:26;;;;;;;16.90;4.85;;;;;;;29.30;49.96;95149.97;5051595;28;20045;-71
2021/08/03 08:51:55;;;;;;;11.60;5.18;;;;;;;29.39;51.76;95147.91;5048456;28;20051;-71
2021/08/03 08:54:21;;;;;;;12.55;5.50;;;;;;;29.45;48.77;95149.19;5045722;28;20518;-71
2021/08/03 08:56:49;;;;;;;17.17;5.55;;;;;;;29.41;49.23;95145.66;5046600;28;20041;-71
2021/08/03 08:59:16;;;;;;;18.25;6.05;;;;;;;29.54;48.02;95133.72;5044656;28;20055;-71
2021/08/03 09:01:43;;;;;;;14.27;5.47;;;;;;;29.78;47.75;95131.25;5045472;28;20498;-70
2021/08/03 09:04:10;;;;;;;11.63;5.78;;;;;;;30.05;46.83;95134.94;5045009;28;20045;-70
2021/08/03 09:06:39;;;;;;;14.98;5.15;;;;;;;30.14;47.04;95138.22;5044016;28;20120;-70
2021/08/03 09:09:14;;;;;;;14.10;5.60;;;;;;;30.22;44.49;95139.94;5045458;28;20041;-70
2021/08/03 09:11:48;;;;;;;14.48;5.80;;;;;;;30.34;42.56;95149.81;5044406;28;20041;-71
2021/08/03 09:14:33;;;;;;;14.60;5.65;;;;;;;30.43;40.24;95149.63;5047182;28;20045;-70
2021/08/03 09:17:00;;;;;;;13.10;5.57;;;;;;;30.54;40.61;95156.03;5045016;28;20477;-71
2021/08/03 09:19:35;;;;;;;18.70;5.45;;;;;;;30.83;41.77;95145.88;5044842;28;20418;-71
2021/08/03 09:22:23;;;;;;;10.57;5.35;;;;;;;31.24;40.23;95155.16;5045801;28;20041;-71
2021/08/03 09:25:10;;;;;;;9.57;4.50;;;;;;;31.54;37.09;95140.34;5049098;28;20047;-70
2021/08/03 09:27:42;;;;;;;11.68;5.45;;;;;;;31.73;33.95;95137.59;5049442;28;20037;-71
2021/08/03 09:30:27;;;;;;;12.93;5.10;;;;;;;31.86;32.90;95134.72;5047685;28;20119;-71
2021/08/03 09:32:54;;;;;;;12.63;5.38;;;;;;;31.99;36.40;95128.00;5047361;28;20036;-71
2021/08/03 09:35:23;;;;;;;11.45;5.80;;;;;;;32.17;31.69;95131.75;5047929;28;20522;-71
2021/08/03 09:37:51;;;;;;;11.10;5.53;;;;;;;32.14;32.12;95126.31;5049897;28;20036;-71
2021/08/03 09:40:24;;;;;;;12.32;4.78;;;;;;;32.00;34.13;95118.78;5048376;28;20041;-70
2021/08/03 09:43:09;;;;;;;11.38;5.07;;;;;;;32.27;32.80;95126.88;5041784;28;20056;-71
2021/08/03 09:45:42;;;;;;;9.38;4.60;;;;;;;32.23;30.83;95124.13;5042787;28;20047;-71
2021/08/03 09:48:19;;;;;;;12.50;5.17;;;;;;;32.49;30.87;95131.44;5042623;28;20063;-71
2021/08/03 09:51:01;;;;;;;10.43;5.40;;;;;;;32.70;30.48;95122.09;5043395;28;20473;-70
2021/08/03 09:53:35;;;;;;;10.50;5.53;;;;;;;33.02;30.64;95132.47;5040713;28;20044;-71
2021/08/03 09:56:03;;;;;;;11.00;4.47;;;;;;;33.24;28.55;95123.50;5043220;28;20059;-71
2021/08/03 09:58:31;;;;;;;11.88;4.80;;;;;;;33.37;26.47;95123.22;5042523;28;20049;-71
2021/08/03 10:01:24;;;;;;;8.98;4.82;;;;;;;33.78;27.11;95129.44;5043968;28;20053;-72
2021/08/03 10:03:52;;;;;;;10.40;4.85;;;;;;;34.20;26.79;95133.63;5042782;28;20469;-72
2021/08/03 10:06:20;;;;;;;13.90;5.68;;;;;;;34.39;26.21;95129.88;5041714;28;20041;-71
2021/08/03 10:08:51;;;;;;;8.85;4.75;;;;;;;34.29;25.01;95125.19;5044704;28;20051;-72
2021/08/03 10:11:19;;;;;;;9.27;3.97;;;;;;;34.56;23.77;95117.59;5042698;28;20059;-72
2021/08/03 10:13:46;;;;;;;7.75;4.13;;;;;;;34.77;24.61;95119.69;5044304;28;20052;-71
2021/08/03 10:16:14;;;;;;;9.40;4.25;;;;;;;34.78;24.89;95110.38;5043529;28;20041;-72
2021/08/03 10:18:43;;;;;;;4.82;3.60;;;;;;;34.72;22.43;95114.63;5045005;28;20061;-72
2021/08/03 10:21:35;;;;;;;6.90;3.55;;;;;;;35.03;22.39;95125.94;5038798;28;20151;-72
2021/08/03 10:24:17;;;;;;;7.80;4.10;;;;;;;34.75;21.59;95119.25;5041277;28;20059;-72
2021/08/03 10:27:14;;;;;;;9.18;3.95;;;;;;;35.12;22.86;95120.94;5043841;28;20048;-72
2021/08/03 10:29:47;;;;;;;7.35;4.18;;;;;;;35.01;21.66;95114.72;5041287;28;20056;-73
2021/08/03 10:32:57;;;;;;;9.85;3.67;;;;;;;35.08;20.87;95114.75;5046498;28;20112;-72
2021/08/03 10:35:53;;;;;;;5.43;3.90;;;;;;;35.14;21.23;95102.38;5023601;28;20033;-73
2021/08/03 10:38:28;;;;;;;8.32;3.35;;;;;;;35.05;20.16;95110.09;5040030;28;21327;-72
2021/08/03 10:40:56;;;;;;;11.25;3.50;;;;;;;35.20;20.05;95106.31;5045347;28;20060;-72
2021/08/03 10:43:25;;;;;;;7.72;3.50;;;;;;;35.32;22.14;95101.69;5044691;28;20514;-73
2021/08/03 10:46:06;;;;;;;10.52;3.55;;;;;;;35.43;20.54;95091.63;5047037;28;20044;-73
2021/08/03 10:48:40;;;;;;;15.80;3.97;;;;;;;35.48;20.10;95088.53;5043573;28;20444;-73
2021/08/03 10:51:13;;;;;;;7.57;3.30;;;;;;;35.93;20.66;95090.91;5046048;28;20673;-72
2021/08/03 10:53:51;;;;;;;7.95;3.85;;;;;;;36.07;21.06;95100.94;5046157;28;20057;-73
2021/08/03 10:56:19;;;;;;;8.18;3.63;;;;;;;36.00;21.46;95099.03;5049519;28;20049;-72
2021/08/03 10:58:46;;;;;;;6.97;3.92;;;;;;;36.03;21.44;95094.75;5049434;28;20033;-73
2021/08/03 11:01:43;;;;;;;8.88;3.80;;;;;;;35.95;21.22;95089.34;5049350;28;20079;-73
2021/08/03 11:04:46;;;;;;;8.45;4.20;;;;;;;36.21;20.22;95095.50;5048892;28;20041;-73
2021/08/03 11:07:34;;;;;;;7.63;3.78;;;;;;;36.58;22.11;95085.34;5046524;28;20094;-72
2021/08/03 11:10:22;;;;;;;7.78;4.07;;;;;;;36.67;20.43;95089.22;5047827;28;20103;-72
2021/08/03 11:12:51;;;;;;;12.27;4.78;;;;;;;36.47;21.74;95079.97;5045281;28;20541;-73
2021/08/03 11:15:21;;;;;;;5.72;3.95;;;;;;;36.32;20.77;95080.00;5050699;28;20036;-73
2021/08/03 11:17:52;;;;;;;8.02;4.38;;;;;;;36.22;20.92;95086.22;5049775;28;20118;-73
2021/08/03 11:20:38;;;;;;;6.88;4.55;;;;;;;36.46;20.02;95084.59;5063472;28;20060;-73
2021/08/03 11:23:10;;;;;;;11.13;4.22;;;;;;;36.65;21.50;95079.91;5047189;28;20044;-72
2021/08/03 11:25:39;;;;;;;6.93;4.32;;;;;;;36.61;20.45;95082.63;5050100;28;20043;-73
2021/08/03 11:28:16;;;;;;;7.35;3.92;;;;;;;36.17;19.69;95083.88;5047843;28;20033;-73
2021/08/03 11:30:45;;;;;;;10.20;3.50;;;;;;;36.44;20.81;95086.16;5048784;28;20055;-73
2021/08/03 11:33:13;;;;;;;7.13;4.28;;;;;;;36.09;20.13;95080.41;5048453;28;20051;-73
2021/08/03 11:35:41;;;;;;;6.15;3.58;;;;;;;35.88;20.65;95078.50;5048364;28;20494;-72
2021/08/03 11:38:10;;;;;;;7.28;4.07;;;;;;;36.09;20.44;95080.41;5048203;28;20044;-73
2021/08/03 11:40:38;;;;;;;12.68;4.70;;;;;;;36.43;19.69;95081.91;5044931;28;20529;-73
2021/08/03 11:43:06;;;;;;;9.55;4.88;;;;;;;36.59;20.51;95065.97;5047589;28;20037;-72
2021/08/03 11:45:36;;;;;;;10.90;4.15;;;;;;;36.52;19.67;95055.16;5048380;28;20546;-73
2021/08/03 11:48:14;;;;;;;8.05;3.90;;;;;;;36.59;19.27;95057.84;5048403;28;20069;-73